sensor_id;sensor_type;location;lat;lon;timestamp;P1;durP1;ratioP1;P2;durP2;ratioP2
70335;SDS011;57756;47.408;18.940;2023-09-19T00:00:00;0.73;;;0.30;;
70335;SDS011;57756;47.408;18.940;2023-09-19T00:02:26;1.13;;;0.60;;
70335;SDS011;57756;47.408;18.940;2023-09-19T00:04:52;0.67;;;0.30;;
70335;SDS011;57756;47.408;18.940;2023-09-19T00:07:18;0.95;;;0.47;;
70335;SDS011;57756;47.408;18.940;2023-09-19T00:09:44;5.33;;;0.83;;
70335;SDS011;57756;47.408;18.940;2023-09-19T00:12:09;1.23;;;0.45;;
70335;SDS011;57756;47.408;18.940;2023-09-19T00:14:35;1.20;;;0.50;;
70335;SDS011;57756;47.408;18.940;2023-09-19T00:17:01;2.78;;;0.50;;
70335;SDS011;57756;47.408;18.940;2023-09-19T00:19:33;1.77;;;0.50;;
70335;SDS011;57756;47.408;18.940;2023-09-19T00:22:02;1.30;;;0.77;;
70335;SDS011;57756;47.408;18.940;2023-09-19T00:24:29;1.65;;;0.77;;
70335;SDS011;57756;47.408;18.940;2023-09-19T00:26:55;1.25;;;0.70;;
70335;SDS011;57756;47.408;18.940;2023-09-19T00:29:21;1.17;;;0.50;;
70335;SDS011;57756;47.408;18.940;2023-09-19T00:31:48;1.30;;;0.60;;
70335;SDS011;57756;47.408;18.940;2023-09-19T00:34:13;1.13;;;0.45;;
70335;SDS011;57756;47.408;18.940;2023-09-19T00:36:39;0.77;;;0.33;;
70335;SDS011;57756;47.408;18.940;2023-09-19T00:39:05;1.50;;;0.90;;
70335;SDS011;57756;47.408;18.940;2023-09-19T00:41:32;0.80;;;0.35;;
70335;SDS011;57756;47.408;18.940;2023-09-19T00:43:59;1.38;;;0.60;;
70335;SDS011;57756;47.408;18.940;2023-09-19T00:46:26;0.80;;;0.47;;
70335;SDS011;57756;47.408;18.940;2023-09-19T00:48:52;0.93;;;0.50;;
70335;SDS011;57756;47.408;18.940;2023-09-19T00:51:17;0.73;;;0.35;;
70335;SDS011;57756;47.408;18.940;2023-09-19T00:53:47;0.80;;;0.30;;
70335;SDS011;57756;47.408;18.940;2023-09-19T00:56:13;1.55;;;0.80;;
70335;SDS011;57756;47.408;18.940;2023-09-19T00:58:40;1.23;;;0.63;;
70335;SDS011;57756;47.408;18.940;2023-09-19T01:01:05;0.73;;;0.33;;
70335;SDS011;57756;47.408;18.940;2023-09-19T01:03:36;1.52;;;0.70;;
70335;SDS011;57756;47.408;18.940;2023-09-19T01:06:02;0.70;;;0.30;;
70335;SDS011;57756;47.408;18.940;2023-09-19T01:08:27;0.80;;;0.43;;
70335;SDS011;57756;47.408;18.940;2023-09-19T01:11:03;0.88;;;0.45;;
70335;SDS011;57756;47.408;18.940;2023-09-19T01:16:53;0.90;;;0.40;;
70335;SDS011;57756;47.408;18.940;2023-09-19T01:22:28;0.80;;;0.55;;
70335;SDS011;57756;47.408;18.940;2023-09-19T01:25:07;1.27;;;0.40;;
70335;SDS011;57756;47.408;18.940;2023-09-19T01:30:46;0.93;;;0.57;;
70335;SDS011;57756;47.408;18.940;2023-09-19T01:33:12;1.40;;;0.70;;
70335;SDS011;57756;47.408;18.940;2023-09-19T01:35:39;0.75;;;0.30;;
70335;SDS011;57756;47.408;18.940;2023-09-19T01:38:05;1.23;;;0.55;;
70335;SDS011;57756;47.408;18.940;2023-09-19T01:40:43;1.50;;;0.67;;
70335;SDS011;57756;47.408;18.940;2023-09-19T01:43:20;1.08;;;0.52;;
70335;SDS011;57756;47.408;18.940;2023-09-19T01:48:48;0.73;;;0.38;;
70335;SDS011;57756;47.408;18.940;2023-09-19T01:52:00;1.17;;;0.60;;
70335;SDS011;57756;47.408;18.940;2023-09-19T01:54:18;2.10;;;0.70;;
70335;SDS011;57756;47.408;18.940;2023-09-19T01:57:07;1.27;;;0.45;;
70335;SDS011;57756;47.408;18.940;2023-09-19T01:59:38;1.02;;;0.57;;
70335;SDS011;57756;47.408;18.940;2023-09-19T02:02:17;1.73;;;0.50;;
70335;SDS011;57756;47.408;18.940;2023-09-19T02:04:46;0.80;;;0.40;;
70335;SDS011;57756;47.408;18.940;2023-09-19T02:07:13;1.97;;;0.60;;
70335;SDS011;57756;47.408;18.940;2023-09-19T02:09:41;5.05;;;0.50;;
70335;SDS011;57756;47.408;18.940;2023-09-19T02:12:08;3.17;;;0.93;;
70335;SDS011;57756;47.408;18.940;2023-09-19T02:14:34;1.30;;;0.30;;
70335;SDS011;57756;47.408;18.940;2023-09-19T02:17:04;1.05;;;0.60;;
70335;SDS011;57756;47.408;18.940;2023-09-19T02:19:34;1.43;;;1.07;;
70335;SDS011;57756;47.408;18.940;2023-09-19T02:22:00;1.27;;;0.47;;
70335;SDS011;57756;47.408;18.940;2023-09-19T02:24:28;1.52;;;0.45;;
70335;SDS011;57756;47.408;18.940;2023-09-19T02:26:53;0.83;;;0.40;;
70335;SDS011;57756;47.408;18.940;2023-09-19T02:29:19;1.33;;;0.50;;
70335;SDS011;57756;47.408;18.940;2023-09-19T02:31:47;0.77;;;0.30;;
70335;SDS011;57756;47.408;18.940;2023-09-19T02:34:12;3.73;;;0.53;;
70335;SDS011;57756;47.408;18.940;2023-09-19T02:36:41;1.45;;;0.47;;
70335;SDS011;57756;47.408;18.940;2023-09-19T02:39:09;0.47;;;0.20;;
70335;SDS011;57756;47.408;18.940;2023-09-19T02:41:36;0.93;;;0.63;;
70335;SDS011;57756;47.408;18.940;2023-09-19T02:44:02;1.20;;;0.70;;
70335;SDS011;57756;47.408;18.940;2023-09-19T02:46:27;1.63;;;0.70;;
70335;SDS011;57756;47.408;18.940;2023-09-19T02:48:53;1.58;;;0.40;;
70335;SDS011;57756;47.408;18.940;2023-09-19T02:51:19;0.90;;;0.40;;
70335;SDS011;57756;47.408;18.940;2023-09-19T02:53:45;0.67;;;0.40;;
70335;SDS011;57756;47.408;18.940;2023-09-19T02:56:12;1.33;;;0.52;;
70335;SDS011;57756;47.408;18.940;2023-09-19T02:58:38;1.83;;;1.00;;
70335;SDS011;57756;47.408;18.940;2023-09-19T03:01:07;0.80;;;0.37;;
70335;SDS011;57756;47.408;18.940;2023-09-19T03:03:39;1.13;;;0.47;;
70335;SDS011;57756;47.408;18.940;2023-09-19T03:06:06;1.00;;;0.30;;
70335;SDS011;57756;47.408;18.940;2023-09-19T03:08:34;0.52;;;0.20;;
70335;SDS011;57756;47.408;18.940;2023-09-19T03:11:05;0.80;;;0.30;;
70335;SDS011;57756;47.408;18.940;2023-09-19T03:13:33;1.03;;;0.53;;
70335;SDS011;57756;47.408;18.940;2023-09-19T03:15:58;0.77;;;0.40;;
70335;SDS011;57756;47.408;18.940;2023-09-19T03:18:24;0.53;;;0.20;;
70335;SDS011;57756;47.408;18.940;2023-09-19T03:20:54;0.90;;;0.60;;
70335;SDS011;57756;47.408;18.940;2023-09-19T03:23:25;1.20;;;0.40;;
70335;SDS011;57756;47.408;18.940;2023-09-19T03:25:51;0.88;;;0.50;;
70335;SDS011;57756;47.408;18.940;2023-09-19T03:28:17;0.68;;;0.20;;
70335;SDS011;57756;47.408;18.940;2023-09-19T03:30:43;0.98;;;0.40;;
70335;SDS011;57756;47.408;18.940;2023-09-19T03:33:09;1.23;;;0.55;;
70335;SDS011;57756;47.408;18.940;2023-09-19T03:35:37;0.77;;;0.30;;
70335;SDS011;57756;47.408;18.940;2023-09-19T03:38:03;1.55;;;0.82;;
70335;SDS011;57756;47.408;18.940;2023-09-19T03:40:29;0.85;;;0.63;;
70335;SDS011;57756;47.408;18.940;2023-09-19T03:42:55;0.55;;;0.35;;
70335;SDS011;57756;47.408;18.940;2023-09-19T03:45:20;0.70;;;0.30;;
70335;SDS011;57756;47.408;18.940;2023-09-19T03:47:46;1.87;;;0.40;;
70335;SDS011;57756;47.408;18.940;2023-09-19T03:50:14;1.13;;;0.52;;
70335;SDS011;57756;47.408;18.940;2023-09-19T03:52:42;2.00;;;0.65;;
70335;SDS011;57756;47.408;18.940;2023-09-19T03:55:11;1.17;;;0.60;;
70335;SDS011;57756;47.408;18.940;2023-09-19T03:57:37;1.37;;;0.53;;
70335;SDS011;57756;47.408;18.940;2023-09-19T04:00:03;0.60;;;0.30;;
70335;SDS011;57756;47.408;18.940;2023-09-19T04:02:39;0.45;;;0.22;;
70335;SDS011;57756;47.408;18.940;2023-09-19T04:05:06;0.40;;;0.10;;
70335;SDS011;57756;47.408;18.940;2023-09-19T04:07:31;1.03;;;0.57;;
70335;SDS011;57756;47.408;18.940;2023-09-19T04:09:57;1.70;;;0.60;;
70335;SDS011;57756;47.408;18.940;2023-09-19T04:12:22;0.87;;;0.43;;
70335;SDS011;57756;47.408;18.940;2023-09-19T04:14:48;0.97;;;0.40;;
70335;SDS011;57756;47.408;18.940;2023-09-19T04:17:15;1.05;;;0.40;;
70335;SDS011;57756;47.408;18.940;2023-09-19T04:19:40;0.83;;;0.57;;
70335;SDS011;57756;47.408;18.940;2023-09-19T04:22:06;0.95;;;0.60;;
70335;SDS011;57756;47.408;18.940;2023-09-19T04:24:32;1.10;;;0.50;;
70335;SDS011;57756;47.408;18.940;2023-09-19T04:26:57;1.45;;;0.63;;
70335;SDS011;57756;47.408;18.940;2023-09-19T04:29:24;3.53;;;1.05;;
70335;SDS011;57756;47.408;18.940;2023-09-19T04:31:51;0.70;;;0.30;;
70335;SDS011;57756;47.408;18.940;2023-09-19T04:34:17;0.80;;;0.47;;
70335;SDS011;57756;47.408;18.940;2023-09-19T04:36:43;0.30;;;0.13;;
70335;SDS011;57756;47.408;18.940;2023-09-19T04:39:08;0.40;;;0.10;;
70335;SDS011;57756;47.408;18.940;2023-09-19T04:41:36;0.43;;;0.20;;
70335;SDS011;57756;47.408;18.940;2023-09-19T04:44:04;0.70;;;0.50;;
70335;SDS011;57756;47.408;18.940;2023-09-19T04:46:30;0.20;;;0.10;;
70335;SDS011;57756;47.408;18.940;2023-09-19T04:48:55;0.30;;;0.10;;
70335;SDS011;57756;47.408;18.940;2023-09-19T04:51:21;0.40;;;0.13;;
70335;SDS011;57756;47.408;18.940;2023-09-19T04:53:46;0.37;;;0.10;;
70335;SDS011;57756;47.408;18.940;2023-09-19T04:56:13;0.30;;;0.10;;
70335;SDS011;57756;47.408;18.940;2023-09-19T04:58:38;0.40;;;0.20;;
70335;SDS011;57756;47.408;18.940;2023-09-19T05:01:04;0.20;;;0.10;;
70335;SDS011;57756;47.408;18.940;2023-09-19T05:03:29;0.50;;;0.20;;
70335;SDS011;57756;47.408;18.940;2023-09-19T05:05:55;0.30;;;0.10;;
70335;SDS011;57756;47.408;18.940;2023-09-19T05:08:20;0.30;;;0.10;;
70335;SDS011;57756;47.408;18.940;2023-09-19T05:10:47;0.45;;;0.20;;
70335;SDS011;57756;47.408;18.940;2023-09-19T05:13:14;0.30;;;0.10;;
70335;SDS011;57756;47.408;18.940;2023-09-19T05:15:39;0.30;;;0.10;;
70335;SDS011;57756;47.408;18.940;2023-09-19T05:18:05;0.30;;;0.10;;
70335;SDS011;57756;47.408;18.940;2023-09-19T05:20:31;0.30;;;0.10;;
70335;SDS011;57756;47.408;18.940;2023-09-19T05:23:02;0.30;;;0.10;;
70335;SDS011;57756;47.408;18.940;2023-09-19T05:25:33;0.35;;;0.10;;
70335;SDS011;57756;47.408;18.940;2023-09-19T05:28:07;0.30;;;0.10;;
70335;SDS011;57756;47.408;18.940;2023-09-19T05:30:33;0.30;;;0.10;;
70335;SDS011;57756;47.408;18.940;2023-09-19T05:33:01;0.20;;;0.08;;
70335;SDS011;57756;47.408;18.940;2023-09-19T05:35:27;0.30;;;0.10;;
70335;SDS011;57756;47.408;18.940;2023-09-19T05:37:53;0.30;;;0.10;;
70335;SDS011;57756;47.408;18.940;2023-09-19T05:40:19;0.32;;;0.10;;
70335;SDS011;57756;47.408;18.940;2023-09-19T05:42:45;0.30;;;0.10;;
70335;SDS011;57756;47.408;18.940;2023-09-19T05:45:11;0.23;;;0.10;;
70335;SDS011;57756;47.408;18.940;2023-09-19T05:47:38;0.20;;;0.00;;
70335;SDS011;57756;47.408;18.940;2023-09-19T05:50:10;0.30;;;0.10;;
70335;SDS011;57756;47.408;18.940;2023-09-19T05:52:37;0.30;;;0.10;;
70335;SDS011;57756;47.408;18.940;2023-09-19T05:55:09;0.30;;;0.10;;
70335;SDS011;57756;47.408;18.940;2023-09-19T05:57:35;9.13;;;0.23;;
70335;SDS011;57756;47.408;18.940;2023-09-19T06:00:04;0.30;;;0.10;;
70335;SDS011;57756;47.408;18.940;2023-09-19T06:02:38;0.30;;;0.10;;
70335;SDS011;57756;47.408;18.940;2023-09-19T06:05:06;0.22;;;0.10;;
70335;SDS011;57756;47.408;18.940;2023-09-19T06:07:35;0.30;;;0.10;;
70335;SDS011;57756;47.408;18.940;2023-09-19T06:10:05;0.27;;;0.10;;
70335;SDS011;57756;47.408;18.940;2023-09-19T06:12:44;0.20;;;0.10;;
70335;SDS011;57756;47.408;18.940;2023-09-19T06:15:10;0.30;;;0.10;;
70335;SDS011;57756;47.408;18.940;2023-09-19T06:17:50;0.30;;;0.10;;
70335;SDS011;57756;47.408;18.940;2023-09-19T06:20:23;0.32;;;0.10;;
70335;SDS011;57756;47.408;18.940;2023-09-19T06:22:49;0.20;;;0.10;;
70335;SDS011;57756;47.408;18.940;2023-09-19T06:25:15;0.30;;;0.10;;
70335;SDS011;57756;47.408;18.940;2023-09-19T06:27:47;0.30;;;0.10;;
70335;SDS011;57756;47.408;18.940;2023-09-19T06:30:14;0.20;;;0.08;;
70335;SDS011;57756;47.408;18.940;2023-09-19T06:32:42;0.27;;;0.00;;
70335;SDS011;57756;47.408;18.940;2023-09-19T06:35:09;0.30;;;0.10;;
70335;SDS011;57756;47.408;18.940;2023-09-19T06:37:38;0.30;;;0.10;;
70335;SDS011;57756;47.408;18.940;2023-09-19T06:40:11;0.20;;;0.10;;
70335;SDS011;57756;47.408;18.940;2023-09-19T06:42:43;0.30;;;0.10;;
70335;SDS011;57756;47.408;18.940;2023-09-19T06:45:15;0.53;;;0.37;;
70335;SDS011;57756;47.408;18.940;2023-09-19T06:47:44;0.20;;;0.10;;
70335;SDS011;57756;47.408;18.940;2023-09-19T06:50:11;0.30;;;0.05;;
70335;SDS011;57756;47.408;18.940;2023-09-19T06:52:42;0.38;;;0.10;;
70335;SDS011;57756;47.408;18.940;2023-09-19T06:55:08;0.20;;;0.00;;
70335;SDS011;57756;47.408;18.940;2023-09-19T06:57:36;0.40;;;0.13;;
70335;SDS011;57756;47.408;18.940;2023-09-19T07:00:02;0.30;;;0.10;;
70335;SDS011;57756;47.408;18.940;2023-09-19T07:02:34;0.30;;;0.10;;
70335;SDS011;57756;47.408;18.940;2023-09-19T07:05:00;0.27;;;0.00;;
70335;SDS011;57756;47.408;18.940;2023-09-19T07:07:25;0.30;;;0.10;;
70335;SDS011;57756;47.408;18.940;2023-09-19T07:09:51;0.20;;;0.10;;
70335;SDS011;57756;47.408;18.940;2023-09-19T07:12:19;0.30;;;0.10;;
70335;SDS011;57756;47.408;18.940;2023-09-19T07:14:44;0.73;;;0.27;;
70335;SDS011;57756;47.408;18.940;2023-09-19T07:17:10;0.20;;;0.00;;
70335;SDS011;57756;47.408;18.940;2023-09-19T07:19:36;0.20;;;0.00;;
70335;SDS011;57756;47.408;18.940;2023-09-19T07:22:02;0.30;;;0.10;;
70335;SDS011;57756;47.408;18.940;2023-09-19T07:24:27;0.20;;;0.00;;
70335;SDS011;57756;47.408;18.940;2023-09-19T07:26:54;0.30;;;0.10;;
70335;SDS011;57756;47.408;18.940;2023-09-19T07:29:19;0.30;;;0.10;;
70335;SDS011;57756;47.408;18.940;2023-09-19T07:31:45;0.30;;;0.10;;
70335;SDS011;57756;47.408;18.940;2023-09-19T07:34:11;0.30;;;0.10;;
70335;SDS011;57756;47.408;18.940;2023-09-19T07:36:36;0.30;;;0.10;;
70335;SDS011;57756;47.408;18.940;2023-09-19T07:39:03;0.30;;;0.10;;
70335;SDS011;57756;47.408;18.940;2023-09-19T07:41:32;0.20;;;0.00;;
70335;SDS011;57756;47.408;18.940;2023-09-19T07:43:57;0.30;;;0.10;;
70335;SDS011;57756;47.408;18.940;2023-09-19T07:46:23;0.20;;;0.10;;
70335;SDS011;57756;47.408;18.940;2023-09-19T07:48:49;0.20;;;0.03;;
70335;SDS011;57756;47.408;18.940;2023-09-19T07:51:15;0.30;;;0.10;;
70335;SDS011;57756;47.408;18.940;2023-09-19T07:53:41;0.25;;;0.10;;
70335;SDS011;57756;47.408;18.940;2023-09-19T07:56:07;0.20;;;0.10;;
70335;SDS011;57756;47.408;18.940;2023-09-19T07:58:35;0.20;;;0.10;;
70335;SDS011;57756;47.408;18.940;2023-09-19T08:01:05;0.30;;;0.10;;
70335;SDS011;57756;47.408;18.940;2023-09-19T08:03:32;1.77;;;0.52;;
70335;SDS011;57756;47.408;18.940;2023-09-19T08:05:59;0.20;;;0.00;;
70335;SDS011;57756;47.408;18.940;2023-09-19T08:08:28;0.20;;;0.10;;
70335;SDS011;57756;47.408;18.940;2023-09-19T08:10:54;0.30;;;0.10;;
70335;SDS011;57756;47.408;18.940;2023-09-19T08:13:24;0.22;;;0.10;;
70335;SDS011;57756;47.408;18.940;2023-09-19T08:15:50;0.28;;;0.10;;
70335;SDS011;57756;47.408;18.940;2023-09-19T08:18:16;0.30;;;0.10;;
70335;SDS011;57756;47.408;18.940;2023-09-19T08:20:42;0.20;;;0.10;;
70335;SDS011;57756;47.408;18.940;2023-09-19T08:23:11;0.30;;;0.10;;
70335;SDS011;57756;47.408;18.940;2023-09-19T08:25:36;0.30;;;0.10;;
70335;SDS011;57756;47.408;18.940;2023-09-19T08:28:03;0.47;;;0.15;;
70335;SDS011;57756;47.408;18.940;2023-09-19T08:30:33;0.40;;;0.20;;
70335;SDS011;57756;47.408;18.940;2023-09-19T08:32:59;0.20;;;0.00;;
70335;SDS011;57756;47.408;18.940;2023-09-19T08:35:28;0.20;;;0.00;;
70335;SDS011;57756;47.408;18.940;2023-09-19T08:37:54;0.20;;;0.10;;
70335;SDS011;57756;47.408;18.940;2023-09-19T08:40:20;0.20;;;0.05;;
70335;SDS011;57756;47.408;18.940;2023-09-19T08:42:47;0.30;;;0.10;;
70335;SDS011;57756;47.408;18.940;2023-09-19T08:45:16;0.30;;;0.10;;
70335;SDS011;57756;47.408;18.940;2023-09-19T08:50:41;0.43;;;0.20;;
70335;SDS011;57756;47.408;18.940;2023-09-19T08:53:15;0.20;;;0.10;;
70335;SDS011;57756;47.408;18.940;2023-09-19T08:55:48;0.35;;;0.10;;
70335;SDS011;57756;47.408;18.940;2023-09-19T08:58:18;0.30;;;0.10;;
70335;SDS011;57756;47.408;18.940;2023-09-19T09:00:47;0.28;;;0.03;;
70335;SDS011;57756;47.408;18.940;2023-09-19T09:03:14;0.30;;;0.10;;
70335;SDS011;57756;47.408;18.940;2023-09-19T09:05:44;0.20;;;0.10;;
70335;SDS011;57756;47.408;18.940;2023-09-19T09:08:11;0.30;;;0.10;;
70335;SDS011;57756;47.408;18.940;2023-09-19T09:10:38;0.57;;;0.30;;
70335;SDS011;57756;47.408;18.940;2023-09-19T09:13:05;0.30;;;0.10;;
70335;SDS011;57756;47.408;18.940;2023-09-19T09:15:31;0.50;;;0.30;;
70335;SDS011;57756;47.408;18.940;2023-09-19T09:18:01;0.38;;;0.10;;
70335;SDS011;57756;47.408;18.940;2023-09-19T09:20:28;0.30;;;0.10;;
70335;SDS011;57756;47.408;18.940;2023-09-19T09:22:53;0.60;;;0.20;;
70335;SDS011;57756;47.408;18.940;2023-09-19T09:25:21;0.50;;;0.10;;
70335;SDS011;57756;47.408;18.940;2023-09-19T09:27:59;0.25;;;0.10;;
70335;SDS011;57756;47.408;18.940;2023-09-19T09:30:33;0.50;;;0.20;;
70335;SDS011;57756;47.408;18.940;2023-09-19T09:33:12;0.30;;;0.10;;
70335;SDS011;57756;47.408;18.940;2023-09-19T09:35:55;0.47;;;0.10;;
70335;SDS011;57756;47.408;18.940;2023-09-19T09:41:11;0.47;;;0.17;;
70335;SDS011;57756;47.408;18.940;2023-09-19T09:43:41;0.37;;;0.10;;
70335;SDS011;57756;47.408;18.940;2023-09-19T09:46:17;0.32;;;0.13;;
70335;SDS011;57756;47.408;18.940;2023-09-19T09:48:44;0.40;;;0.20;;
70335;SDS011;57756;47.408;18.940;2023-09-19T09:51:28;0.70;;;0.30;;
70335;SDS011;57756;47.408;18.940;2023-09-19T09:54:09;1.02;;;0.15;;
70335;SDS011;57756;47.408;18.940;2023-09-19T09:56:41;0.50;;;0.10;;
70335;SDS011;57756;47.408;18.940;2023-09-19T09:59:18;0.50;;;0.13;;
70335;SDS011;57756;47.408;18.940;2023-09-19T10:01:47;0.40;;;0.10;;
70335;SDS011;57756;47.408;18.940;2023-09-19T10:04:28;0.40;;;0.20;;
70335;SDS011;57756;47.408;18.940;2023-09-19T10:07:23;1.08;;;0.20;;
70335;SDS011;57756;47.408;18.940;2023-09-19T10:09:51;0.60;;;0.30;;
70335;SDS011;57756;47.408;18.940;2023-09-19T10:12:17;0.40;;;0.20;;
70335;SDS011;57756;47.408;18.940;2023-09-19T10:14:44;0.30;;;0.10;;
70335;SDS011;57756;47.408;18.940;2023-09-19T10:17:12;0.30;;;0.10;;
70335;SDS011;57756;47.408;18.940;2023-09-19T10:22:26;0.50;;;0.20;;
70335;SDS011;57756;47.408;18.940;2023-09-19T10:24:53;0.93;;;0.30;;
70335;SDS011;57756;47.408;18.940;2023-09-19T10:27:20;0.47;;;0.15;;
70335;SDS011;57756;47.408;18.940;2023-09-19T10:29:48;0.60;;;0.15;;
70335;SDS011;57756;47.408;18.940;2023-09-19T10:32:19;0.63;;;0.33;;
70335;SDS011;57756;47.408;18.940;2023-09-19T10:34:49;0.95;;;0.40;;
70335;SDS011;57756;47.408;18.940;2023-09-19T10:37:16;0.40;;;0.10;;
70335;SDS011;57756;47.408;18.940;2023-09-19T10:39:46;0.47;;;0.15;;
70335;SDS011;57756;47.408;18.940;2023-09-19T10:42:18;1.67;;;0.68;;
70335;SDS011;57756;47.408;18.940;2023-09-19T10:44:45;0.40;;;0.10;;
70335;SDS011;57756;47.408;18.940;2023-09-19T10:47:18;2.05;;;0.40;;
70335;SDS011;57756;47.408;18.940;2023-09-19T10:49:45;0.50;;;0.20;;
70335;SDS011;57756;47.408;18.940;2023-09-19T10:52:12;0.80;;;0.60;;
70335;SDS011;57756;47.408;18.940;2023-09-19T10:54:45;0.75;;;0.30;;
70335;SDS011;57756;47.408;18.940;2023-09-19T10:57:22;0.50;;;0.20;;
70335;SDS011;57756;47.408;18.940;2023-09-19T11:00:04;0.80;;;0.30;;
70335;SDS011;57756;47.408;18.940;2023-09-19T11:06:02;0.50;;;0.10;;
70335;SDS011;57756;47.408;18.940;2023-09-19T11:14:15;0.55;;;0.22;;
70335;SDS011;57756;47.408;18.940;2023-09-19T11:30:31;0.40;;;0.15;;
70335;SDS011;57756;47.408;18.940;2023-09-19T11:35:58;0.93;;;0.40;;
70335;SDS011;57756;47.408;18.940;2023-09-19T11:43:54;0.50;;;0.20;;
70335;SDS011;57756;47.408;18.940;2023-09-19T11:49:16;0.60;;;0.25;;
70335;SDS011;57756;47.408;18.940;2023-09-19T11:51:46;1.00;;;0.23;;
70335;SDS011;57756;47.408;18.940;2023-09-19T11:54:15;0.40;;;0.10;;
70335;SDS011;57756;47.408;18.940;2023-09-19T11:56:43;0.98;;;0.28;;
70335;SDS011;57756;47.408;18.940;2023-09-19T11:59:16;0.68;;;0.20;;
70335;SDS011;57756;47.408;18.940;2023-09-19T12:01:51;0.60;;;0.30;;
70335;SDS011;57756;47.408;18.940;2023-09-19T12:04:34;0.60;;;0.20;;
70335;SDS011;57756;47.408;18.940;2023-09-19T12:07:04;0.52;;;0.20;;
70335;SDS011;57756;47.408;18.940;2023-09-19T12:09:39;0.50;;;0.20;;
70335;SDS011;57756;47.408;18.940;2023-09-19T12:12:09;0.50;;;0.20;;
70335;SDS011;57756;47.408;18.940;2023-09-19T12:14:37;0.50;;;0.20;;
70335;SDS011;57756;47.408;18.940;2023-09-19T12:17:04;0.50;;;0.20;;
70335;SDS011;57756;47.408;18.940;2023-09-19T12:19:30;0.55;;;0.20;;
70335;SDS011;57756;47.408;18.940;2023-09-19T12:21:56;0.90;;;0.40;;
70335;SDS011;57756;47.408;18.940;2023-09-19T12:24:34;0.60;;;0.20;;
70335;SDS011;57756;47.408;18.940;2023-09-19T12:27:04;0.50;;;0.28;;
70335;SDS011;57756;47.408;18.940;2023-09-19T12:29:30;0.40;;;0.10;;
70335;SDS011;57756;47.408;18.940;2023-09-19T12:31:57;0.53;;;0.30;;
70335;SDS011;57756;47.408;18.940;2023-09-19T12:34:24;0.40;;;0.10;;
70335;SDS011;57756;47.408;18.940;2023-09-19T12:37:12;0.85;;;0.30;;
70335;SDS011;57756;47.408;18.940;2023-09-19T12:39:47;0.38;;;0.13;;
70335;SDS011;57756;47.408;18.940;2023-09-19T12:42:22;2.38;;;0.20;;
70335;SDS011;57756;47.408;18.940;2023-09-19T12:44:49;0.50;;;0.20;;
70335;SDS011;57756;47.408;18.940;2023-09-19T12:47:22;0.60;;;0.20;;
70335;SDS011;57756;47.408;18.940;2023-09-19T12:50:08;0.40;;;0.10;;
70335;SDS011;57756;47.408;18.940;2023-09-19T12:52:48;0.40;;;0.20;;
70335;SDS011;57756;47.408;18.940;2023-09-19T12:55:27;0.40;;;0.10;;
70335;SDS011;57756;47.408;18.940;2023-09-19T12:58:12;0.40;;;0.10;;
70335;SDS011;57756;47.408;18.940;2023-09-19T13:00:43;1.58;;;0.20;;
70335;SDS011;57756;47.408;18.940;2023-09-19T13:08:20;0.40;;;0.13;;
70335;SDS011;57756;47.408;18.940;2023-09-19T13:14:14;0.40;;;0.10;;
70335;SDS011;57756;47.408;18.940;2023-09-19T13:19:47;0.50;;;0.20;;
70335;SDS011;57756;47.408;18.940;2023-09-19T13:25:16;0.50;;;0.20;;
70335;SDS011;57756;47.408;18.940;2023-09-19T13:27:44;0.40;;;0.15;;
70335;SDS011;57756;47.408;18.940;2023-09-19T13:30:13;1.05;;;0.40;;
70335;SDS011;57756;47.408;18.940;2023-09-19T13:32:39;0.50;;;0.20;;
70335;SDS011;57756;47.408;18.940;2023-09-19T13:35:06;0.30;;;0.10;;
70335;SDS011;57756;47.408;18.940;2023-09-19T13:37:35;0.50;;;0.20;;
70335;SDS011;57756;47.408;18.940;2023-09-19T13:40:04;0.43;;;0.13;;
70335;SDS011;57756;47.408;18.940;2023-09-19T13:42:30;0.65;;;0.30;;
70335;SDS011;57756;47.408;18.940;2023-09-19T13:44:56;0.50;;;0.20;;
70335;SDS011;57756;47.408;18.940;2023-09-19T13:47:22;0.40;;;0.10;;
70335;SDS011;57756;47.408;18.940;2023-09-19T13:49:50;0.50;;;0.15;;
70335;SDS011;57756;47.408;18.940;2023-09-19T13:52:18;0.35;;;0.10;;
70335;SDS011;57756;47.408;18.940;2023-09-19T13:54:44;0.40;;;0.17;;
70335;SDS011;57756;47.408;18.940;2023-09-19T13:57:10;0.47;;;0.20;;
70335;SDS011;57756;47.408;18.940;2023-09-19T13:59:35;0.70;;;0.30;;
70335;SDS011;57756;47.408;18.940;2023-09-19T14:02:01;0.40;;;0.20;;
70335;SDS011;57756;47.408;18.940;2023-09-19T14:04:30;0.40;;;0.10;;
70335;SDS011;57756;47.408;18.940;2023-09-19T14:06:56;0.50;;;0.20;;
70335;SDS011;57756;47.408;18.940;2023-09-19T14:09:23;0.40;;;0.10;;
70335;SDS011;57756;47.408;18.940;2023-09-19T14:11:49;0.40;;;0.13;;
70335;SDS011;57756;47.408;18.940;2023-09-19T14:14:17;0.65;;;0.20;;
70335;SDS011;57756;47.408;18.940;2023-09-19T14:16:46;0.55;;;0.20;;
70335;SDS011;57756;47.408;18.940;2023-09-19T14:19:13;0.60;;;0.20;;
70335;SDS011;57756;47.408;18.940;2023-09-19T14:21:41;0.40;;;0.10;;
70335;SDS011;57756;47.408;18.940;2023-09-19T14:24:07;0.55;;;0.10;;
70335;SDS011;57756;47.408;18.940;2023-09-19T14:26:37;0.40;;;0.10;;
70335;SDS011;57756;47.408;18.940;2023-09-19T14:29:03;0.40;;;0.20;;
70335;SDS011;57756;47.408;18.940;2023-09-19T14:31:29;0.40;;;0.20;;
70335;SDS011;57756;47.408;18.940;2023-09-19T14:33:55;0.57;;;0.20;;
70335;SDS011;57756;47.408;18.940;2023-09-19T14:36:24;0.70;;;0.20;;
70335;SDS011;57756;47.408;18.940;2023-09-19T14:38:52;0.60;;;0.30;;
70335;SDS011;57756;47.408;18.940;2023-09-19T14:41:22;0.40;;;0.10;;
70335;SDS011;57756;47.408;18.940;2023-09-19T14:43:48;0.77;;;0.20;;
70335;SDS011;57756;47.408;18.940;2023-09-19T14:46:14;0.40;;;0.10;;
70335;SDS011;57756;47.408;18.940;2023-09-19T14:48:39;0.70;;;0.30;;
70335;SDS011;57756;47.408;18.940;2023-09-19T14:51:06;0.70;;;0.20;;
70335;SDS011;57756;47.408;18.940;2023-09-19T14:53:37;0.70;;;0.20;;
70335;SDS011;57756;47.408;18.940;2023-09-19T14:56:03;0.40;;;0.20;;
70335;SDS011;57756;47.408;18.940;2023-09-19T14:58:29;0.50;;;0.10;;
70335;SDS011;57756;47.408;18.940;2023-09-19T15:01:02;0.40;;;0.10;;
70335;SDS011;57756;47.408;18.940;2023-09-19T15:03:32;0.50;;;0.20;;
70335;SDS011;57756;47.408;18.940;2023-09-19T15:06:00;0.57;;;0.20;;
70335;SDS011;57756;47.408;18.940;2023-09-19T15:08:27;0.50;;;0.17;;
70335;SDS011;57756;47.408;18.940;2023-09-19T15:10:52;1.25;;;0.38;;
70335;SDS011;57756;47.408;18.940;2023-09-19T15:13:18;0.57;;;0.20;;
70335;SDS011;57756;47.408;18.940;2023-09-19T15:15:45;0.30;;;0.10;;
70335;SDS011;57756;47.408;18.940;2023-09-19T15:18:13;0.88;;;0.43;;
70335;SDS011;57756;47.408;18.940;2023-09-19T15:20:42;0.40;;;0.10;;
70335;SDS011;57756;47.408;18.940;2023-09-19T15:23:09;0.30;;;0.10;;
70335;SDS011;57756;47.408;18.940;2023-09-19T15:25:35;0.50;;;0.10;;
70335;SDS011;57756;47.408;18.940;2023-09-19T15:28:00;0.40;;;0.10;;
70335;SDS011;57756;47.408;18.940;2023-09-19T15:30:36;0.75;;;0.30;;
70335;SDS011;57756;47.408;18.940;2023-09-19T15:33:04;0.50;;;0.20;;
70335;SDS011;57756;47.408;18.940;2023-09-19T15:35:30;0.30;;;0.10;;
70335;SDS011;57756;47.408;18.940;2023-09-19T15:37:55;0.40;;;0.20;;
70335;SDS011;57756;47.408;18.940;2023-09-19T15:40:21;0.40;;;0.10;;
70335;SDS011;57756;47.408;18.940;2023-09-19T15:42:49;0.38;;;0.17;;
70335;SDS011;57756;47.408;18.940;2023-09-19T15:45:15;0.40;;;0.10;;
70335;SDS011;57756;47.408;18.940;2023-09-19T15:47:41;0.50;;;0.10;;
70335;SDS011;57756;47.408;18.940;2023-09-19T15:50:08;0.47;;;0.15;;